sensor_id;sensor_type;location;lat;lon;timestamp;pressure;altitude;pressure_sealevel;temperature;humidity
71059;BME280;70265;47.576;19.270;2023-06-05T00:00:33;99225.59;;;16.62;67.65
71059;BME280;70265;47.576;19.270;2023-06-05T00:01:34;99231.81;;;16.69;66.92
71059;BME280;70265;47.576;19.270;2023-06-05T00:02:38;99230.47;;;16.73;66.50
71059;BME280;70265;47.576;19.270;2023-06-05T00:03:39;99230.53;;;16.80;66.04
71059;BME280;70265;47.576;19.270;2023-06-05T00:04:44;99226.63;;;16.76;66.35
71059;BME280;70265;47.576;19.270;2023-06-05T00:05:48;99231.09;;;16.75;67.07
71059;BME280;70265;47.576;19.270;2023-06-05T00:06:51;99229.16;;;16.84;65.84
71059;BME280;70265;47.576;19.270;2023-06-05T00:07:52;99232.53;;;16.93;65.37
71059;BME280;70265;47.576;19.270;2023-06-05T00:08:56;99234.19;;;16.94;65.17
71059;BME280;70265;47.576;19.270;2023-06-05T00:09:57;99234.72;;;16.89;65.36
71059;BME280;70265;47.576;19.270;2023-06-05T00:11:01;99229.69;;;16.94;65.13
71059;BME280;70265;47.576;19.270;2023-06-05T00:12:03;99237.38;;;16.89;65.42
71059;BME280;70265;47.576;19.270;2023-06-05T00:13:07;99231.00;;;16.84;65.80
71059;BME280;70265;47.576;19.270;2023-06-05T00:14:08;99227.97;;;16.87;66.06
71059;BME280;70265;47.576;19.270;2023-06-05T00:15:12;99227.63;;;16.90;66.05
71059;BME280;70265;47.576;19.270;2023-06-05T00:16:13;99234.28;;;16.86;66.08
71059;BME280;70265;47.576;19.270;2023-06-05T00:17:17;99234.44;;;16.84;66.07
71059;BME280;70265;47.576;19.270;2023-06-05T00:18:20;99228.16;;;16.85;66.20
71059;BME280;70265;47.576;19.270;2023-06-05T00:19:23;99234.66;;;16.83;66.00
71059;BME280;70265;47.576;19.270;2023-06-05T00:20:25;99228.53;;;16.82;66.54
71059;BME280;70265;47.576;19.270;2023-06-05T00:21:31;99228.44;;;16.75;67.11
71059;BME280;70265;47.576;19.270;2023-06-05T00:22:32;99231.09;;;16.75;66.41
71059;BME280;70265;47.576;19.270;2023-06-05T00:23:36;99229.06;;;16.77;66.46
71059;BME280;70265;47.576;19.270;2023-06-05T00:24:37;99226.41;;;16.77;66.05
71059;BME280;70265;47.576;19.270;2023-06-05T00:25:41;99227.97;;;16.72;66.99
71059;BME280;70265;47.576;19.270;2023-06-05T00:26:42;99230.00;;;16.70;67.46
71059;BME280;70265;47.576;19.270;2023-06-05T00:27:46;99230.38;;;16.67;67.24
71059;BME280;70265;47.576;19.270;2023-06-05T00:28:47;99228.50;;;16.67;67.76
71059;BME280;70265;47.576;19.270;2023-06-05T00:29:51;99225.88;;;16.67;67.65
71059;BME280;70265;47.576;19.270;2023-06-05T00:30:52;99233.00;;;16.67;68.05
71059;BME280;70265;47.576;19.270;2023-06-05T00:31:56;99224.25;;;16.66;67.84
71059;BME280;70265;47.576;19.270;2023-06-05T00:32:57;99231.16;;;16.67;67.96
71059;BME280;70265;47.576;19.270;2023-06-05T00:34:01;99232.00;;;16.68;68.26
71059;BME280;70265;47.576;19.270;2023-06-05T00:35:03;99225.88;;;16.67;67.66
71059;BME280;70265;47.576;19.270;2023-06-05T00:36:08;99231.16;;;16.67;67.82
71059;BME280;70265;47.576;19.270;2023-06-05T00:37:11;99225.06;;;16.67;67.72
71059;BME280;70265;47.576;19.270;2023-06-05T00:38:16;99225.88;;;16.67;67.54
71059;BME280;70265;47.576;19.270;2023-06-05T00:39:17;99226.88;;;16.66;67.49
71059;BME280;70265;47.576;19.270;2023-06-05T00:40:21;99225.59;;;16.62;67.40
71059;BME280;70265;47.576;19.270;2023-06-05T00:41:23;99216.38;;;16.58;67.92
71059;BME280;70265;47.576;19.270;2023-06-05T00:42:26;99226.44;;;16.63;68.17
71059;BME280;70265;47.576;19.270;2023-06-05T00:43:27;99228.16;;;16.56;69.19
71059;BME280;70265;47.576;19.270;2023-06-05T00:44:31;99224.09;;;16.45;70.08
71059;BME280;70265;47.576;19.270;2023-06-05T00:45:32;99228.78;;;16.58;68.86
71059;BME280;70265;47.576;19.270;2023-06-05T00:46:36;99228.25;;;16.62;68.11
71059;BME280;70265;47.576;19.270;2023-06-05T00:47:38;99230.53;;;16.65;67.97
71059;BME280;70265;47.576;19.270;2023-06-05T00:48:42;99228.72;;;16.66;67.48
71059;BME280;70265;47.576;19.270;2023-06-05T00:49:44;99233.66;;;16.69;67.65
71059;BME280;70265;47.576;19.270;2023-06-05T00:50:48;99223.31;;;16.74;67.30
71059;BME280;70265;47.576;19.270;2023-06-05T00:51:50;99229.25;;;16.61;68.56
71059;BME280;70265;47.576;19.270;2023-06-05T00:52:56;99229.44;;;16.74;66.75
71059;BME280;70265;47.576;19.270;2023-06-05T00:53:58;99227.81;;;16.73;67.85
71059;BME280;70265;47.576;19.270;2023-06-05T00:55:05;99219.75;;;16.82;66.55
71059;BME280;70265;47.576;19.270;2023-06-05T00:56:08;99230.72;;;16.78;67.21
71059;BME280;70265;47.576;19.270;2023-06-05T00:57:12;99221.69;;;16.73;67.77
71059;BME280;70265;47.576;19.270;2023-06-05T00:58:13;99220.84;;;16.72;67.83
71059;BME280;70265;47.576;19.270;2023-06-05T00:59:18;99226.53;;;16.69;68.64
71059;BME280;70265;47.576;19.270;2023-06-05T01:00:20;99223.50;;;16.72;67.57
71059;BME280;70265;47.576;19.270;2023-06-05T01:01:26;99219.75;;;16.82;66.61
71059;BME280;70265;47.576;19.270;2023-06-05T01:02:30;99225.78;;;16.75;67.58
71059;BME280;70265;47.576;19.270;2023-06-05T01:03:35;99219.66;;;16.75;67.61
71059;BME280;70265;47.576;19.270;2023-06-05T01:04:36;99223.03;;;16.69;68.01
71059;BME280;70265;47.576;19.270;2023-06-05T01:05:41;99224.88;;;16.83;66.46
71059;BME280;70265;47.576;19.270;2023-06-05T01:06:44;99221.94;;;16.78;67.28
71059;BME280;70265;47.576;19.270;2023-06-05T01:07:48;99221.41;;;16.83;67.62
71059;BME280;70265;47.576;19.270;2023-06-05T01:08:52;99217.38;;;16.87;66.47
71059;BME280;70265;47.576;19.270;2023-06-05T01:09:57;99213.63;;;16.81;67.27
71059;BME280;70265;47.576;19.270;2023-06-05T01:11:01;99218.38;;;16.86;67.11
71059;BME280;70265;47.576;19.270;2023-06-05T01:12:11;99221.56;;;16.81;67.67
71059;BME280;70265;47.576;19.270;2023-06-05T01:13:23;99212.91;;;16.87;67.28
71059;BME280;70265;47.576;19.270;2023-06-05T01:14:29;99217.25;;;16.95;66.55
71059;BME280;70265;47.576;19.270;2023-06-05T01:15:33;99217.94;;;16.97;66.80
71059;BME280;70265;47.576;19.270;2023-06-05T01:16:39;99220.13;;;16.93;67.05
71059;BME280;70265;47.576;19.270;2023-06-05T01:17:43;99220.28;;;16.92;66.90
71059;BME280;70265;47.576;19.270;2023-06-05T01:18:48;99216.00;;;16.91;67.21
71059;BME280;70265;47.576;19.270;2023-06-05T01:19:49;99221.94;;;16.93;67.14
71059;BME280;70265;47.576;19.270;2023-06-05T01:20:54;99216.56;;;17.01;65.87
71059;BME280;70265;47.576;19.270;2023-06-05T01:21:57;99217.56;;;17.00;66.13
71059;BME280;70265;47.576;19.270;2023-06-05T01:23:03;99217.81;;;17.05;65.02
71059;BME280;70265;47.576;19.270;2023-06-05T01:24:05;99219.00;;;17.02;65.14
71059;BME280;70265;47.576;19.270;2023-06-05T01:25:10;99212.34;;;17.06;65.00
71059;BME280;70265;47.576;19.270;2023-06-05T01:26:18;99217.00;;;17.04;65.33
71059;BME280;70265;47.576;19.270;2023-06-05T01:27:30;99216.56;;;17.01;65.65
71059;BME280;70265;47.576;19.270;2023-06-05T01:28:33;99218.47;;;17.07;65.32
71059;BME280;70265;47.576;19.270;2023-06-05T01:29:41;99216.81;;;17.06;65.25
71059;BME280;70265;47.576;19.270;2023-06-05T01:30:47;99210.53;;;16.92;66.77
71059;BME280;70265;47.576;19.270;2023-06-05T01:31:55;99210.34;;;16.94;66.05
71059;BME280;70265;47.576;19.270;2023-06-05T01:33:01;99215.00;;;16.92;66.87
71059;BME280;70265;47.576;19.270;2023-06-05T01:34:09;99214.16;;;17.06;65.02
71059;BME280;70265;47.576;19.270;2023-06-05T01:35:14;99219.66;;;17.04;65.54
71059;BME280;70265;47.576;19.270;2023-06-05T01:36:20;99216.19;;;17.04;65.89
71059;BME280;70265;47.576;19.270;2023-06-05T01:37:22;99209.97;;;16.97;66.39
71059;BME280;70265;47.576;19.270;2023-06-05T01:38:29;99216.91;;;16.98;66.60
71059;BME280;70265;47.576;19.270;2023-06-05T01:39:32;99208.41;;;16.88;67.14
71059;BME280;70265;47.576;19.270;2023-06-05T01:40:36;99216.09;;;16.97;66.34
71059;BME280;70265;47.576;19.270;2023-06-05T01:41:38;99218.19;;;17.02;66.45
71059;BME280;70265;47.576;19.270;2023-06-05T01:42:44;99217.81;;;17.05;66.00
71059;BME280;70265;47.576;19.270;2023-06-05T01:43:47;99213.25;;;16.99;65.78
71059;BME280;70265;47.576;19.270;2023-06-05T01:44:51;99217.63;;;16.92;66.89
71059;BME280;70265;47.576;19.270;2023-06-05T01:45:53;99218.22;;;16.87;67.77
71059;BME280;70265;47.576;19.270;2023-06-05T01:47:00;99218.56;;;16.84;67.34
71059;BME280;70265;47.576;19.270;2023-06-05T01:48:01;99211.06;;;16.88;67.36
71059;BME280;70265;47.576;19.270;2023-06-05T01:49:06;99216.81;;;16.91;67.39
71059;BME280;70265;47.576;19.270;2023-06-05T01:50:09;99209.41;;;17.01;66.04
71059;BME280;70265;47.576;19.270;2023-06-05T01:51:13;99215.53;;;17.02;66.51
71059;BME280;70265;47.576;19.270;2023-06-05T01:52:14;99205.94;;;17.01;65.90
71059;BME280;70265;47.576;19.270;2023-06-05T01:53:18;99209.59;;;17.00;66.44
71059;BME280;70265;47.576;19.270;2023-06-05T01:54:23;99209.31;;;17.09;66.12
71059;BME280;70265;47.576;19.270;2023-06-05T01:55:27;99210.97;;;17.10;66.45
71059;BME280;70265;47.576;19.270;2023-06-05T01:56:29;99215.06;;;17.13;65.36
71059;BME280;70265;47.576;19.270;2023-06-05T01:57:33;99207.19;;;17.05;66.25
71059;BME280;70265;47.576;19.270;2023-06-05T01:58:34;99213.84;;;17.15;65.36
71059;BME280;70265;47.576;19.270;2023-06-05T01:59:39;99205.28;;;16.99;67.23
71059;BME280;70265;47.576;19.270;2023-06-05T02:00:40;99201.44;;;17.01;66.88
71059;BME280;70265;47.576;19.270;2023-06-05T02:01:45;99215.28;;;16.97;67.12
71059;BME280;70265;47.576;19.270;2023-06-05T02:02:48;99208.78;;;16.99;66.62
71059;BME280;70265;47.576;19.270;2023-06-05T02:03:52;99202.66;;;16.99;66.14
71059;BME280;70265;47.576;19.270;2023-06-05T02:04:54;99199.53;;;16.95;67.48
71059;BME280;70265;47.576;19.270;2023-06-05T02:06:00;99205.28;;;16.99;66.93
71059;BME280;70265;47.576;19.270;2023-06-05T02:07:01;99201.94;;;16.90;67.05
71059;BME280;70265;47.576;19.270;2023-06-05T02:08:05;99202.84;;;16.97;66.12
71059;BME280;70265;47.576;19.270;2023-06-05T02:09:10;99196.34;;;17.00;65.93
71059;BME280;70265;47.576;19.270;2023-06-05T02:10:16;99209.47;;;17.08;65.58
71059;BME280;70265;47.576;19.270;2023-06-05T02:11:19;99207.41;;;17.03;65.74
71059;BME280;70265;47.576;19.270;2023-06-05T02:12:23;99203.38;;;17.07;65.71
71059;BME280;70265;47.576;19.270;2023-06-05T02:13:26;99211.13;;;17.09;65.62
71059;BME280;70265;47.576;19.270;2023-06-05T02:14:33;99199.47;;;17.03;65.86
71059;BME280;70265;47.576;19.270;2023-06-05T02:15:36;99199.09;;;17.06;65.30
71059;BME280;70265;47.576;19.270;2023-06-05T02:16:42;99197.81;;;17.02;65.88
71059;BME280;70265;47.576;19.270;2023-06-05T02:17:44;99199.38;;;16.97;66.56
71059;BME280;70265;47.576;19.270;2023-06-05T02:18:51;99196.91;;;16.95;67.04
71059;BME280;70265;47.576;19.270;2023-06-05T02:19:52;99196.59;;;17.05;65.67
71059;BME280;70265;47.576;19.270;2023-06-05T02:20:55;99201.09;;;17.04;65.80
71059;BME280;70265;47.576;19.270;2023-06-05T02:21:56;99198.25;;;17.06;65.45
71059;BME280;70265;47.576;19.270;2023-06-05T02:23:00;99195.81;;;17.04;65.54
71059;BME280;70265;47.576;19.270;2023-06-05T02:24:01;99196.06;;;16.95;67.09
71059;BME280;70265;47.576;19.270;2023-06-05T02:25:11;99188.69;;;16.90;67.15
71059;BME280;70265;47.576;19.270;2023-06-05T02:26:15;99198.34;;;16.98;66.10
71059;BME280;70265;47.576;19.270;2023-06-05T02:27:20;99197.34;;;16.99;66.26
71059;BME280;70265;47.576;19.270;2023-06-05T02:28:24;99198.78;;;17.01;66.32
71059;BME280;70265;47.576;19.270;2023-06-05T02:29:28;99193.31;;;17.03;65.29
71059;BME280;70265;47.576;19.270;2023-06-05T02:30:29;99191.31;;;17.05;65.36
71059;BME280;70265;47.576;19.270;2023-06-05T02:31:33;99204.69;;;16.97;66.28
71059;BME280;70265;47.576;19.270;2023-06-05T02:32:35;99191.75;;;17.08;65.78
71059;BME280;70265;47.576;19.270;2023-06-05T02:33:42;99197.44;;;17.05;65.37
71059;BME280;70265;47.576;19.270;2023-06-05T02:34:43;99201.81;;;17.13;64.66
71059;BME280;70265;47.576;19.270;2023-06-05T02:35:47;99198.47;;;17.04;65.66
71059;BME280;70265;47.576;19.270;2023-06-05T02:36:48;99200.06;;;17.05;65.50
71059;BME280;70265;47.576;19.270;2023-06-05T02:37:52;99198.63;;;17.03;65.48
71059;BME280;70265;47.576;19.270;2023-06-05T02:38:54;99206.19;;;17.06;65.15
71059;BME280;70265;47.576;19.270;2023-06-05T02:39:57;99205.28;;;16.99;66.04
71059;BME280;70265;47.576;19.270;2023-06-05T02:40:59;99200.28;;;17.04;65.79
71059;BME280;70265;47.576;19.270;2023-06-05T02:42:06;99202.28;;;17.02;66.03
71059;BME280;70265;47.576;19.270;2023-06-05T02:43:13;99201.66;;;17.00;66.15
71059;BME280;70265;47.576;19.270;2023-06-05T02:44:15;99196.53;;;16.98;66.09
71059;BME280;70265;47.576;19.270;2023-06-05T02:45:18;99196.97;;;17.02;65.69
71059;BME280;70265;47.576;19.270;2023-06-05T02:46:20;99202.28;;;17.02;65.58
71059;BME280;70265;47.576;19.270;2023-06-05T02:47:25;99197.72;;;16.96;66.08
71059;BME280;70265;47.576;19.270;2023-06-05T02:48:26;99196.16;;;17.01;65.82
71059;BME280;70265;47.576;19.270;2023-06-05T02:49:30;99197.72;;;16.96;66.45
71059;BME280;70265;47.576;19.270;2023-06-05T02:50:32;99194.22;;;17.10;64.83
71059;BME280;70265;47.576;19.270;2023-06-05T02:51:36;99196.22;;;17.08;65.05
71059;BME280;70265;47.576;19.270;2023-06-05T02:52:37;99199.25;;;17.05;65.34
71059;BME280;70265;47.576;19.270;2023-06-05T02:53:41;99201.00;;;16.98;65.77
71059;BME280;70265;47.576;19.270;2023-06-05T02:54:42;99196.97;;;17.02;65.48
71059;BME280;70265;47.576;19.270;2023-06-05T02:55:46;99201.81;;;16.98;65.85
71059;BME280;70265;47.576;19.270;2023-06-05T02:56:48;99195.44;;;16.93;66.44
71059;BME280;70265;47.576;19.270;2023-06-05T02:57:54;99202.78;;;16.91;66.79
71059;BME280;70265;47.576;19.270;2023-06-05T02:58:58;99199.00;;;17.00;65.95
71059;BME280;70265;47.576;19.270;2023-06-05T03:00:04;99198.72;;;16.95;66.33
71059;BME280;70265;47.576;19.270;2023-06-05T03:01:08;99204.03;;;16.95;66.02
71059;BME280;70265;47.576;19.270;2023-06-05T03:02:12;99191.59;;;16.95;66.45
71059;BME280;70265;47.576;19.270;2023-06-05T03:03:13;99199.53;;;16.95;66.45
71059;BME280;70265;47.576;19.270;2023-06-05T03:04:17;99198.72;;;16.95;66.36
71059;BME280;70265;47.576;19.270;2023-06-05T03:05:21;99196.97;;;17.02;65.62
71059;BME280;70265;47.576;19.270;2023-06-05T03:06:27;99197.72;;;16.96;66.17
71059;BME280;70265;47.576;19.270;2023-06-05T03:07:33;99196.88;;;17.10;64.84
71059;BME280;70265;47.576;19.270;2023-06-05T03:08:37;99200.66;;;17.01;66.21
71059;BME280;70265;47.576;19.270;2023-06-05T03:09:38;99195.25;;;16.94;66.77
71059;BME280;70265;47.576;19.270;2023-06-05T03:10:42;99199.75;;;16.94;67.01
71059;BME280;70265;47.576;19.270;2023-06-05T03:11:43;99202.19;;;16.95;66.49
71059;BME280;70265;47.576;19.270;2023-06-05T03:12:47;99196.53;;;16.98;65.71
71059;BME280;70265;47.576;19.270;2023-06-05T03:13:51;99199.47;;;17.03;65.76
71059;BME280;70265;47.576;19.270;2023-06-05T03:14:55;99190.06;;;17.01;65.94
71059;BME280;70265;47.576;19.270;2023-06-05T03:15:56;99198.91;;;16.93;66.30
71059;BME280;70265;47.576;19.270;2023-06-05T03:17:01;99201.75;;;16.92;67.56
71059;BME280;70265;47.576;19.270;2023-06-05T03:18:04;99203.41;;;16.93;66.60
71059;BME280;70265;47.576;19.270;2023-06-05T03:19:08;99203.41;;;16.93;66.61
71059;BME280;70265;47.576;19.270;2023-06-05T03:20:10;99205.03;;;16.94;66.80
71059;BME280;70265;47.576;19.270;2023-06-05T03:21:14;99209.69;;;16.92;67.54
71059;BME280;70265;47.576;19.270;2023-06-05T03:22:15;99206.59;;;16.88;67.51
71059;BME280;70265;47.576;19.270;2023-06-05T03:23:18;99207.03;;;16.92;66.88
71059;BME280;70265;47.576;19.270;2023-06-05T03:24:20;99207.03;;;16.92;68.60
71059;BME280;70265;47.576;19.270;2023-06-05T03:25:25;99207.03;;;16.92;67.15
71059;BME280;70265;47.576;19.270;2023-06-05T03:26:26;99201.13;;;16.90;66.63
71059;BME280;70265;47.576;19.270;2023-06-05T03:27:31;99198.47;;;16.90;66.83
71059;BME280;70265;47.576;19.270;2023-06-05T03:28:32;99204.13;;;16.87;67.07
71059;BME280;70265;47.576;19.270;2023-06-05T03:29:39;99205.97;;;16.86;67.15
71059;BME280;70265;47.576;19.270;2023-06-05T03:30:41;99201.50;;;16.87;66.74
71059;BME280;70265;47.576;19.270;2023-06-05T03:31:44;99210.81;;;16.83;66.97
71059;BME280;70265;47.576;19.270;2023-06-05T03:32:46;99201.94;;;16.75;67.83
71059;BME280;70265;47.576;19.270;2023-06-05T03:33:51;99197.94;;;16.79;67.71
71059;BME280;70265;47.576;19.270;2023-06-05T03:34:52;99197.63;;;16.74;68.39
71059;BME280;70265;47.576;19.270;2023-06-05T03:35:56;99197.28;;;16.77;67.75
71059;BME280;70265;47.576;19.270;2023-06-05T03:36:58;99197.28;;;16.77;67.68
71059;BME280;70265;47.576;19.270;2023-06-05T03:38:02;99200.28;;;16.74;68.14
71059;BME280;70265;47.576;19.270;2023-06-05T03:39:03;99192.34;;;16.74;68.21
71059;BME280;70265;47.576;19.270;2023-06-05T03:40:09;99197.00;;;16.72;68.44
71059;BME280;70265;47.576;19.270;2023-06-05T03:41:11;99192.34;;;16.74;68.33
71059;BME280;70265;47.576;19.270;2023-06-05T03:42:14;99199.66;;;16.72;68.58
71059;BME280;70265;47.576;19.270;2023-06-05T03:43:16;99197.38;;;16.69;68.85
71059;BME280;70265;47.576;19.270;2023-06-05T03:44:19;99201.84;;;16.69;68.89
71059;BME280;70265;47.576;19.270;2023-06-05T03:45:24;99194.28;;;16.81;68.35
71059;BME280;70265;47.576;19.270;2023-06-05T03:46:28;99198.84;;;16.72;69.11
71059;BME280;70265;47.576;19.270;2023-06-05T03:47:30;99202.75;;;16.61;70.22
71059;BME280;70265;47.576;19.270;2023-06-05T03:48:34;99197.56;;;16.68;69.80
71059;BME280;70265;47.576;19.270;2023-06-05T03:49:35;99204.75;;;16.74;69.48
71059;BME280;70265;47.576;19.270;2023-06-05T03:50:46;99206.31;;;16.68;70.04
71059;BME280;70265;47.576;19.270;2023-06-05T03:51:48;99204.69;;;16.67;69.75
71059;BME280;70265;47.576;19.270;2023-06-05T03:52:52;99209.72;;;16.77;69.00
71059;BME280;70265;47.576;19.270;2023-06-05T03:53:54;99207.63;;;16.72;69.69
71059;BME280;70265;47.576;19.270;2023-06-05T03:54:58;99205.06;;;16.79;68.81
71059;BME280;70265;47.576;19.270;2023-06-05T03:56:01;99210.88;;;16.74;69.68
71059;BME280;70265;47.576;19.270;2023-06-05T03:57:05;99209.59;;;16.70;70.05
71059;BME280;70265;47.576;19.270;2023-06-05T03:58:11;99212.25;;;16.70;70.57
71059;BME280;70265;47.576;19.270;2023-06-05T03:59:14;99210.25;;;16.72;70.73
71059;BME280;70265;47.576;19.270;2023-06-05T04:00:25;99215.03;;;16.77;69.64
71059;BME280;70265;47.576;19.270;2023-06-05T04:01:26;99214.00;;;16.78;70.01
71059;BME280;70265;47.576;19.270;2023-06-05T04:02:30;99212.63;;;16.82;69.07
71059;BME280;70265;47.576;19.270;2023-06-05T04:03:31;99214.06;;;16.85;69.99
71059;BME280;70265;47.576;19.270;2023-06-05T04:04:37;99214.28;;;16.83;69.55
71059;BME280;70265;47.576;19.270;2023-06-05T04:05:39;99207.31;;;16.82;69.58
71059;BME280;70265;47.576;19.270;2023-06-05T04:06:43;99207.94;;;16.84;69.24
71059;BME280;70265;47.576;19.270;2023-06-05T04:07:44;99211.88;;;16.88;69.22
71059;BME280;70265;47.576;19.270;2023-06-05T04:08:48;99209.06;;;16.90;69.72
71059;BME280;70265;47.576;19.270;2023-06-05T04:09:49;99211.72;;;16.90;70.07
71059;BME280;70265;47.576;19.270;2023-06-05T04:10:53;99216.44;;;16.94;69.34
71059;BME280;70265;47.576;19.270;2023-06-05T04:11:54;99212.78;;;16.95;69.55
71059;BME280;70265;47.576;19.270;2023-06-05T04:12:58;99217.47;;;16.93;69.73
71059;BME280;70265;47.576;19.270;2023-06-05T04:13:59;99213.63;;;16.96;69.83
71059;BME280;70265;47.576;19.270;2023-06-05T04:15:04;99213.00;;;16.94;69.55
71059;BME280;70265;47.576;19.270;2023-06-05T04:16:12;99218.84;;;17.04;70.26
71059;BME280;70265;47.576;19.270;2023-06-05T04:17:14;99221.66;;;17.02;69.79
71059;BME280;70265;47.576;19.270;2023-06-05T04:18:17;99220.81;;;17.02;69.67
71059;BME280;70265;47.576;19.270;2023-06-05T04:19:18;99223.09;;;17.05;69.70
71059;BME280;70265;47.576;19.270;2023-06-05T04:20:22;99211.25;;;17.01;69.76
71059;BME280;70265;47.576;19.270;2023-06-05T04:21:23;99226.41;;;17.07;69.54
71059;BME280;70265;47.576;19.270;2023-06-05T04:22:27;99221.72;;;17.09;70.34
71059;BME280;70265;47.576;19.270;2023-06-05T04:23:28;99218.09;;;17.10;69.67
71059;BME280;70265;47.576;19.270;2023-06-05T04:24:32;99225.50;;;17.14;69.69
71059;BME280;70265;47.576;19.270;2023-06-05T04:25:33;99221.25;;;17.20;70.02
71059;BME280;70265;47.576;19.270;2023-06-05T04:26:37;99226.56;;;17.20;70.47
71059;BME280;70265;47.576;19.270;2023-06-05T04:27:39;99223.38;;;17.24;70.40
71059;BME280;70265;47.576;19.270;2023-06-05T04:28:44;99219.13;;;17.30;69.49
71059;BME280;70265;47.576;19.270;2023-06-05T04:29:46;99230.19;;;17.34;70.47
71059;BME280;70265;47.576;19.270;2023-06-05T04:30:49;99222.53;;;17.24;69.16
71059;BME280;70265;47.576;19.270;2023-06-05T04:31:53;99231.28;;;17.39;69.17
71059;BME280;70265;47.576;19.270;2023-06-05T04:32:57;99222.31;;;17.40;70.19
71059;BME280;70265;47.576;19.270;2023-06-05T04:33:58;99219.84;;;17.39;68.88
71059;BME280;70265;47.576;19.270;2023-06-05T04:35:05;99227.69;;;17.47;67.66
71059;BME280;70265;47.576;19.270;2023-06-05T04:36:07;99226.03;;;17.46;67.97
71059;BME280;70265;47.576;19.270;2023-06-05T04:37:12;99217.28;;;17.45;67.63
71059;BME280;70265;47.576;19.270;2023-06-05T04:38:14;99219.94;;;17.45;68.72
71059;BME280;70265;47.576;19.270;2023-06-05T04:39:21;99218.47;;;17.43;67.49
71059;BME280;70265;47.576;19.270;2023-06-05T04:40:25;99222.84;;;17.50;68.82
71059;BME280;70265;47.576;19.270;2023-06-05T04:41:26;99218.69;;;17.62;68.22
71059;BME280;70265;47.576;19.270;2023-06-05T04:42:30;99219.91;;;17.60;67.83
71059;BME280;70265;47.576;19.270;2023-06-05T04:43:31;99214.03;;;17.64;67.20
71059;BME280;70265;47.576;19.270;2023-06-05T04:44:35;99219.91;;;17.81;66.42
71059;BME280;70265;47.576;19.270;2023-06-05T04:45:38;99212.63;;;17.90;67.90
71059;BME280;70265;47.576;19.270;2023-06-05T04:46:42;99218.97;;;17.89;66.76
71059;BME280;70265;47.576;19.270;2023-06-05T04:47:46;99216.88;;;18.05;67.91
71059;BME280;70265;47.576;19.270;2023-06-05T04:48:50;99218.56;;;18.13;65.40
71059;BME280;70265;47.576;19.270;2023-06-05T04:49:58;99222.78;;;18.28;65.48
71059;BME280;70265;47.576;19.270;2023-06-05T04:51:08;99225.00;;;18.25;65.36
71059;BME280;70265;47.576;19.270;2023-06-05T04:52:10;99226.34;;;18.42;65.87
71059;BME280;70265;47.576;19.270;2023-06-05T04:53:16;99214.31;;;18.46;62.95
71059;BME280;70265;47.576;19.270;2023-06-05T04:54:17;99221.78;;;18.57;63.29
71059;BME280;70265;47.576;19.270;2023-06-05T04:55:21;99214.66;;;18.37;62.55
71059;BME280;70265;47.576;19.270;2023-06-05T04:56:22;99213.19;;;18.55;63.34
71059;BME280;70265;47.576;19.270;2023-06-05T04:57:26;99219.97;;;18.64;64.46
71059;BME280;70265;47.576;19.270;2023-06-05T04:58:27;99221.44;;;18.67;62.74
71059;BME280;70265;47.576;19.270;2023-06-05T04:59:31;99225.09;;;18.66;63.18
71059;BME280;70265;47.576;19.270;2023-06-05T05:00:33;99223.13;;;18.74;63.67
71059;BME280;70265;47.576;19.270;2023-06-05T05:01:37;99220.78;;;18.65;63.35
71059;BME280;70265;47.576;19.270;2023-06-05T05:02:38;99220.97;;;18.57;61.95
71059;BME280;70265;47.576;19.270;2023-06-05T05:03:45;99221.03;;;18.70;62.71
71059;BME280;70265;47.576;19.270;2023-06-05T05:04:47;99218.75;;;18.60;61.83
71059;BME280;70265;47.576;19.270;2023-06-05T05:05:51;99220.19;;;18.63;61.97
71059;BME280;70265;47.576;19.270;2023-06-05T05:06:52;99226.16;;;18.71;62.82
71059;BME280;70265;47.576;19.270;2023-06-05T05:08:01;99223.38;;;18.86;62.22
71059;BME280;70265;47.576;19.270;2023-06-05T05:09:04;99218.28;;;18.85;61.68
71059;BME280;70265;47.576;19.270;2023-06-05T05:10:10;99223.41;;;18.93;61.31
71059;BME280;70265;47.576;19.270;2023-06-05T05:11:11;99223.63;;;18.91;61.62
71059;BME280;70265;47.576;19.270;2023-06-05T05:12:16;99222.09;;;18.75;61.54
71059;BME280;70265;47.576;19.270;2023-06-05T05:13:17;99219.81;;;18.72;60.42
71059;BME280;70265;47.576;19.270;2023-06-05T05:14:24;99225.94;;;18.66;61.62
71059;BME280;70265;47.576;19.270;2023-06-05T05:15:25;99217.81;;;18.74;62.94
71059;BME280;70265;47.576;19.270;2023-06-05T05:16:29;99222.31;;;18.74;62.93
71059;BME280;70265;47.576;19.270;2023-06-05T05:17:30;99227.53;;;18.61;61.56
71059;BME280;70265;47.576;19.270;2023-06-05T05:18:34;99232.84;;;18.61;62.58
71059;BME280;70265;47.576;19.270;2023-06-05T05:19:38;99228.59;;;18.66;62.39
71059;BME280;70265;47.576;19.270;2023-06-05T05:20:42;99230.47;;;18.72;60.65
71059;BME280;70265;47.576;19.270;2023-06-05T05:21:46;99229.44;;;18.73;61.10
71059;BME280;70265;47.576;19.270;2023-06-05T05:22:48;99232.06;;;18.67;61.69
71059;BME280;70265;47.576;19.270;2023-06-05T05:23:52;99225.63;;;18.89;62.32
71059;BME280;70265;47.576;19.270;2023-06-05T05:24:53;99228.91;;;18.85;63.23
71059;BME280;70265;47.576;19.270;2023-06-05T05:25:57;99236.81;;;18.78;61.58
71059;BME280;70265;47.576;19.270;2023-06-05T05:26:58;99228.19;;;18.69;62.04
71059;BME280;70265;47.576;19.270;2023-06-05T05:28:02;99236.78;;;18.71;61.13
71059;BME280;70265;47.576;19.270;2023-06-05T05:29:03;99233.78;;;18.81;64.11
71059;BME280;70265;47.576;19.270;2023-06-05T05:30:08;99241.44;;;18.97;60.35
71059;BME280;70265;47.576;19.270;2023-06-05T05:31:11;99235.91;;;18.99;61.00
71059;BME280;70265;47.576;19.270;2023-06-05T05:32:14;99241.22;;;18.99;62.30